Time;durP1;ratioP1;P1;durP2;ratioP2;P2;SDS_P1;SDS_P2;PMS_P1;PMS_P2;Temp;Humidity;BMP_temperature;BMP_pressure;BME280_temperature;BME280_humidity;BME280_pressure;Samples;Min_cycle;Max_cycle;Signal;HPM_P1;HPM_P2
2023/06/14 05:50:31;;;;;;;6.30;3.15;;;;;;;;;;10497543;28;20367;-87
2023/06/14 05:55:32;;;;;;;8.40;3.60;;;;;;;;;;10495430;28;20464;-87
2023/06/14 06:00:33;;;;;;;5.63;3.03;;;;;;;;;;10497966;28;20459;-86
2023/06/14 06:05:34;;;;;;;2.75;2.45;;;;;;;;;;10498578;28;20027;-85
2023/06/14 06:10:35;;;;;;;13.48;3.40;;;;;;;;;;10505306;28;20021;-85
2023/06/14 06:15:36;;;;;;;6.43;2.70;;;;;;;;;;10504444;28;20027;-84
2023/06/14 06:20:37;;;;;;;7.03;2.88;;;;;;;;;;10501204;28;20029;-86
2023/06/14 06:25:38;;;;;;;6.43;2.78;;;;;;;;;;10495758;28;20056;-85
2023/06/14 06:30:39;;;;;;;3.92;2.75;;;;;;;;;;10493995;28;20025;-85
2023/06/14 06:35:40;;;;;;;4.15;2.65;;;;;;;;;;10493809;28;20053;-85
2023/06/14 06:40:41;;;;;;;3.55;2.83;;;;;;;;;;10494421;28;20029;-85
2023/06/14 06:45:44;;;;;;;10.48;4.10;;;;;;;;;;10488759;28;20036;-85
2023/06/14 06:50:45;;;;;;;7.68;2.90;;;;;;;;;;10490510;28;20021;-85
2023/06/14 06:55:46;;;;;;;7.25;2.55;;;;;;;;;;10493320;28;20162;-85
2023/06/14 07:00:48;;;;;;;3.15;2.42;;;;;;;;;;10473788;28;20033;-82
2023/06/14 07:05:49;;;;;;;6.65;2.97;;;;;;;;;;10478465;28;20119;-88
2023/06/14 07:10:50;;;;;;;8.43;3.00;;;;;;;;;;10470562;28;20036;-84
2023/06/14 07:15:53;;;;;;;6.15;2.83;;;;;;;;;;10468835;28;20486;-85
2023/06/14 07:20:55;;;;;;;5.60;2.72;;;;;;;;;;10467810;28;20475;-84
2023/06/14 07:25:56;;;;;;;6.63;2.58;;;;;;;;;;10465077;28;20028;-85
2023/06/14 07:30:57;;;;;;;5.43;2.95;;;;;;;;;;10469816;28;20091;-84
2023/06/14 07:35:59;;;;;;;6.32;2.72;;;;;;;;;;10499980;28;20546;-84
2023/06/14 07:41:00;;;;;;;3.55;2.20;;;;;;;;;;10472613;28;20469;-83
2023/06/14 07:46:02;;;;;;;4.38;2.45;;;;;;;;;;10462434;28;20093;-83
2023/06/14 07:51:03;;;;;;;4.40;2.40;;;;;;;;;;10460717;28;20110;-82
2023/06/14 07:56:06;;;;;;;3.90;2.30;;;;;;;;;;10464805;28;20029;-83
2023/06/14 08:01:07;;;;;;;10.02;3.97;;;;;;;;;;10465144;28;20455;-82
2023/06/14 08:06:08;;;;;;;3.92;2.40;;;;;;;;;;10465356;28;20503;-82
2023/06/14 08:11:09;;;;;;;6.78;2.33;;;;;;;;;;10461850;28;20025;-82
2023/06/14 08:16:11;;;;;;;5.60;2.58;;;;;;;;;;10462127;28;20140;-82
2023/06/14 08:21:14;;;;;;;5.43;2.50;;;;;;;;;;10466804;28;20052;-82
2023/06/14 08:26:15;;;;;;;5.90;2.65;;;;;;;;;;10467678;28;20108;-82
2023/06/14 08:31:16;;;;;;;3.03;2.05;;;;;;;;;;10464964;28;20044;-82
2023/06/14 08:36:17;;;;;;;4.47;1.88;;;;;;;;;;10463517;28;20035;-84
2023/06/14 08:41:22;;;;;;;4.47;2.15;;;;;;;;;;10464247;28;20075;-84
2023/06/14 08:46:24;;;;;;;3.58;2.40;;;;;;;;;;10465575;28;20040;-83
2023/06/14 08:51:33;;;;;;;3.08;2.10;;;;;;;;;;10465614;28;20021;-84
2023/06/14 08:56:37;;;;;;;2.17;1.57;;;;;;;;;;10466851;28;20028;-84
2023/06/14 09:01:38;;;;;;;3.63;2.05;;;;;;;;;;10467645;28;20029;-85
2023/06/14 09:06:40;;;;;;;3.63;1.63;;;;;;;;;;10485911;28;20025;-84
2023/06/14 09:12:06;;;;;;;6.25;1.58;;;;;;;;;;10473114;28;20027;-84
2023/06/14 09:17:07;;;;;;;11.15;7.57;;;;;;;;;;10465490;28;20193;-84
2023/06/14 09:22:11;;;;;;;3.97;1.70;;;;;;;;;;10464547;28;20021;-84
2023/06/14 09:27:18;;;;;;;4.10;1.70;;;;;;;;;;10464454;28;20025;-84
2023/06/14 09:32:20;;;;;;;2.67;1.70;;;;;;;;;;10456535;28;20036;-84
2023/06/14 09:37:29;;;;;;;2.95;1.40;;;;;;;;;;10468769;28;20050;-84
2023/06/14 09:42:30;;;;;;;5.43;1.30;;;;;;;;;;10467546;28;20032;-85
2023/06/14 09:47:31;;;;;;;1.98;1.20;;;;;;;;;;10464763;28;20182;-84
2023/06/14 09:52:32;;;;;;;1.52;1.20;;;;;;;;;;10469294;28;20461;-86
2023/06/14 09:57:34;;;;;;;2.08;1.10;;;;;;;;;;10462816;28;20367;-84
2023/06/14 10:02:42;;;;;;;8.13;1.60;;;;;;;;;;10463024;28;20025;-84
2023/06/14 10:07:45;;;;;;;2.85;1.20;;;;;;;;;;10460111;28;20025;-84
2023/06/14 10:12:47;;;;;;;3.78;1.10;;;;;;;;;;10461683;28;20454;-85
2023/06/14 10:17:52;;;;;;;2.80;1.40;;;;;;;;;;10461937;28;20036;-85
2023/06/14 10:22:59;;;;;;;3.75;2.95;;;;;;;;;;10444103;28;20027;-84
2023/06/14 10:28:16;;;;;;;2.47;1.25;;;;;;;;;;10465479;28;20068;-85
2023/06/14 10:33:17;;;;;;;4.18;2.22;;;;;;;;;;10468333;28;20029;-85
2023/06/14 10:38:30;;;;;;;1.90;1.40;;;;;;;;;;10469842;28;20074;-85
2023/06/14 10:43:31;;;;;;;2.85;1.40;;;;;;;;;;10477552;28;20041;-85
2023/06/14 10:48:41;;;;;;;2.65;2.03;;;;;;;;;;10499033;28;20056;-86
2023/06/14 10:53:43;;;;;;;5.63;1.55;;;;;;;;;;10474258;28;20025;-86
2023/06/14 10:58:44;;;;;;;2.38;1.55;;;;;;;;;;10468071;28;20385;-85
2023/06/14 11:03:55;;;;;;;3.92;1.67;;;;;;;;;;10468779;28;20108;-85
2023/06/14 11:08:56;;;;;;;28.83;13.15;;;;;;;;;;10469567;28;20033;-85
2023/06/14 11:13:57;;;;;;;3.10;1.70;;;;;;;;;;10467006;28;20032;-84
2023/06/14 11:18:58;;;;;;;2.92;1.70;;;;;;;;;;10467413;28;20098;-85
2023/06/14 11:23:59;;;;;;;2.42;1.58;;;;;;;;;;10464880;28;20028;-85
2023/06/14 11:29:01;;;;;;;4.43;1.52;;;;;;;;;;10466024;28;20109;-85
2023/06/14 11:34:03;;;;;;;2.58;1.42;;;;;;;;;;10467299;28;20120;-85
2023/06/14 11:39:08;;;;;;;4.35;1.60;;;;;;;;;;10467804;28;20029;-85
2023/06/14 11:44:09;;;;;;;10.50;9.02;;;;;;;;;;10470370;28;20030;-85
2023/06/14 11:49:10;;;;;;;3.00;1.60;;;;;;;;;;10466109;28;20047;-86
2023/06/14 11:54:12;;;;;;;2.03;1.50;;;;;;;;;;10465882;28;20120;-86
2023/06/14 12:04:24;;;;;;;4.28;1.73;;;;;;;;;;10353494;28;20035;-82
2023/06/14 12:09:26;;;;;;;5.40;2.75;;;;;;;;;;10356200;28;20106;-82
2023/06/14 12:14:31;;;;;;;3.38;1.67;;;;;;;;;;10358070;28;20100;-83
2023/06/14 12:19:32;;;;;;;4.45;1.88;;;;;;;;;;10355804;28;20037;-83
2023/06/14 12:24:33;;;;;;;3.38;2.00;;;;;;;;;;10356157;28;20030;-82
2023/06/14 12:29:35;;;;;;;4.88;2.45;;;;;;;;;;10356871;28;20030;-82
2023/06/14 12:34:36;;;;;;;4.78;2.10;;;;;;;;;;10353083;28;20033;-81
2023/06/14 12:39:39;;;;;;;5.03;2.40;;;;;;;;;;10350420;28;20038;-82
2023/06/14 12:44:40;;;;;;;4.90;2.40;;;;;;;;;;10351857;28;20042;-81
2023/06/14 12:49:42;;;;;;;5.97;4.38;;;;;;;;;;10350140;28;20381;-82
2023/06/14 12:54:43;;;;;;;3.28;1.85;;;;;;;;;;10350010;28;20400;-83
2023/06/14 12:59:44;;;;;;;2.38;1.80;;;;;;;;;;10360646;28;20094;-82
2023/06/14 13:04:45;;;;;;;5.32;2.40;;;;;;;;;;10355468;28;20023;-82
2023/06/14 13:09:46;;;;;;;2.67;2.22;;;;;;;;;;10351450;28;20038;-83
2023/06/14 13:14:47;;;;;;;4.85;2.70;;;;;;;;;;10353371;28;20392;-82
2023/06/14 13:19:48;;;;;;;5.63;2.47;;;;;;;;;;10355546;28;20065;-83
2023/06/14 13:24:49;;;;;;;5.25;2.45;;;;;;;;;;10349979;28;20092;-83
2023/06/14 13:29:50;;;;;;;3.30;2.10;;;;;;;;;;10349348;28;20026;-83
2023/06/14 13:34:51;;;;;;;5.07;2.90;;;;;;;;;;10349980;28;20121;-82
2023/06/14 13:39:52;;;;;;;4.15;2.70;;;;;;;;;;10348433;28;20042;-83
2023/06/14 13:44:53;;;;;;;4.88;2.00;;;;;;;;;;10349147;28;20050;-83
2023/06/14 13:49:54;;;;;;;4.47;2.42;;;;;;;;;;10347013;28;20022;-83
2023/06/14 13:54:55;;;;;;;9.25;6.82;;;;;;;;;;10348231;28;20031;-84
2023/06/14 14:00:00;;;;;;;2.55;2.35;;;;;;;;;;10365485;28;20038;-83
2023/06/14 14:05:01;;;;;;;4.57;2.65;;;;;;;;;;10358683;28;20021;-83
2023/06/14 14:10:03;;;;;;;6.78;2.50;;;;;;;;;;10354770;28;20512;-83
2023/06/14 14:15:04;;;;;;;4.55;2.22;;;;;;;;;;10358833;28;20041;-83
2023/06/14 14:20:06;;;;;;;5.65;2.40;;;;;;;;;;10358118;28;20026;-84
2023/06/14 14:25:07;;;;;;;3.53;2.15;;;;;;;;;;10357866;28;20007;-84
2023/06/14 14:30:09;;;;;;;3.72;2.42;;;;;;;;;;10355742;28;20097;-84
2023/06/14 14:35:11;;;;;;;5.75;3.13;;;;;;;;;;10355655;28;20054;-83
2023/06/14 14:40:13;;;;;;;5.28;2.85;;;;;;;;;;10353260;28;20553;-83
2023/06/14 14:45:14;;;;;;;5.28;2.58;;;;;;;;;;10352650;28;20085;-83
2023/06/14 14:50:16;;;;;;;4.90;2.70;;;;;;;;;;10352271;28;20037;-83
2023/06/14 14:55:17;;;;;;;5.15;2.40;;;;;;;;;;10352725;28;20117;-83
2023/06/14 15:00:18;;;;;;;4.88;2.30;;;;;;;;;;10352676;28;20038;-83
2023/06/14 15:05:19;;;;;;;4.07;3.15;;;;;;;;;;10351675;28;20127;-84
2023/06/14 15:10:20;;;;;;;4.72;2.72;;;;;;;;;;10350971;28;20070;-83
2023/06/14 15:15:22;;;;;;;5.72;2.50;;;;;;;;;;10354264;28;20030;-83
2023/06/14 15:20:23;;;;;;;5.07;2.88;;;;;;;;;;10358684;28;20026;-83
2023/06/14 15:25:24;;;;;;;3.00;2.70;;;;;;;;;;10349842;28;20022;-83
2023/06/14 15:30:25;;;;;;;2.72;2.30;;;;;;;;;;10352071;28;20086;-83
2023/06/14 15:35:26;;;;;;;6.75;3.05;;;;;;;;;;10349649;28;20039;-83
2023/06/14 15:40:28;;;;;;;3.35;2.50;;;;;;;;;;10350914;28;20062;-83
2023/06/14 15:45:30;;;;;;;4.28;2.40;;;;;;;;;;10352299;28;20101;-82
2023/06/14 15:50:31;;;;;;;3.70;2.13;;;;;;;;;;10349403;28;20053;-84
2023/06/14 15:55:32;;;;;;;4.32;2.80;;;;;;;;;;10351010;28;20022;-83
2023/06/14 16:00:33;;;;;;;5.53;2.90;;;;;;;;;;10348877;28;20041;-83
2023/06/14 16:05:34;;;;;;;5.38;2.45;;;;;;;;;;10351070;28;20108;-83
2023/06/14 16:10:36;;;;;;;2.97;2.38;;;;;;;;;;10348346;28;20396;-84
2023/06/14 16:15:37;;;;;;;2.78;2.40;;;;;;;;;;10351447;28;20034;-85
2023/06/14 16:20:38;;;;;;;3.92;2.33;;;;;;;;;;10350540;28;20026;-85
2023/06/14 16:25:39;;;;;;;3.55;2.90;;;;;;;;;;10346559;28;20391;-86
2023/06/14 16:30:40;;;;;;;2.83;2.63;;;;;;;;;;10345546;28;20053;-86
2023/06/14 16:35:44;;;;;;;4.90;3.63;;;;;;;;;;10341205;28;20033;-87
2023/06/14 16:40:45;;;;;;;3.80;2.63;;;;;;;;;;10341696;28;20085;-86
2023/06/14 16:45:46;;;;;;;3.20;2.60;;;;;;;;;;10341096;28;20026;-86
2023/06/14 16:50:52;;;;;;;6.88;2.88;;;;;;;;;;10344937;28;20045;-85
2023/06/14 16:55:54;;;;;;;3.30;2.60;;;;;;;;;;10369136;28;20020;-87
2023/06/14 17:00:57;;;;;;;3.45;2.63;;;;;;;;;;10373460;28;20038;-87
2023/06/14 17:05:58;;;;;;;2.83;2.45;;;;;;;;;;10343443;28;20045;-86
2023/06/14 17:11:00;;;;;;;3.65;2.63;;;;;;;;;;10344445;28;20506;-86
2023/06/14 17:16:06;;;;;;;6.57;2.63;;;;;;;;;;10355161;28;20022;-86
2023/06/14 17:21:07;;;;;;;3.53;2.88;;;;;;;;;;10358418;28;20348;-85
2023/06/14 17:26:08;;;;;;;6.10;5.55;;;;;;;;;;10363044;28;20094;-86
2023/06/14 17:31:09;;;;;;;3.33;2.40;;;;;;;;;;10362686;28;20045;-86
2023/06/14 17:36:11;;;;;;;5.15;2.17;;;;;;;;;;10362984;28;20026;-86
2023/06/14 17:41:14;;;;;;;3.42;2.83;;;;;;;;;;10365377;28;20023;-86
2023/06/14 17:46:15;;;;;;;3.97;2.63;;;;;;;;;;10365266;28;20058;-86
2023/06/14 17:51:19;;;;;;;5.80;3.08;;;;;;;;;;10370282;28;20066;-84
2023/06/14 17:56:20;;;;;;;2.70;2.35;;;;;;;;;;10345911;28;20038;-85
